Time;durP1;ratioP1;P1;durP2;ratioP2;P2;SDS_P1;SDS_P2;PMS_P1;PMS_P2;Temp;Humidity;BMP_temperature;BMP_pressure;BME280_temperature;BME280_humidity;BME280_pressure;Samples;Min_cycle;Max_cycle;Signal;HPM_P1;HPM_P2
2022/12/26 00:01:09;;;;;;;;;5.67;4.00;;;;;13.48;77.13;101089.53;4976803;28;45432;-48
2022/12/26 00:03:34;;;;;;;;;4.00;4.00;;;;;13.40;77.01;101073.44;4976201;28;47570;-47
2022/12/26 00:06:00;;;;;;;;;5.67;2.33;;;;;13.46;77.21;101084.34;4976257;28;45311;-49
2022/12/26 00:08:25;;;;;;;;;13.00;7.33;;;;;13.46;77.28;101097.72;4976423;28;45243;-50
2022/12/26 00:10:50;;;;;;;;;7.33;3.67;;;;;13.41;77.42;101085.84;4976786;28;45235;-49
2022/12/26 00:13:16;;;;;;;;;8.67;6.67;;;;;13.45;77.36;101079.19;4976371;28;46176;-46
2022/12/26 00:15:41;;;;;;;;;8.33;4.00;;;;;13.44;77.59;101089.03;4976294;28;45241;-55
2022/12/26 00:18:07;;;;;;;;;7.33;5.00;;;;;13.42;77.52;101090.19;4977948;28;45347;-49
2022/12/26 00:20:33;;;;;;;;;4.67;4.33;;;;;13.42;77.96;101093.69;4976554;27;45487;-47
2022/12/26 00:23:01;;;;;;;;;10.67;7.00;;;;;13.42;77.84;101090.19;4977638;28;45433;-63
2022/12/26 00:25:26;;;;;;;;;9.33;6.33;;;;;13.43;77.72;101091.84;4976250;28;45426;-46
2022/12/26 00:27:51;;;;;;;;;10.00;6.33;;;;;13.43;77.93;101100.69;4976181;28;45329;-49
2022/12/26 00:30:17;;;;;;;;;7.00;5.67;;;;;13.43;77.95;101098.03;4976508;28;45297;-49
2022/12/26 00:32:42;;;;;;;;;8.67;4.33;;;;;13.40;77.90;101086.81;4975944;28;47072;-62
2022/12/26 00:35:08;;;;;;;;;10.33;6.33;;;;;13.42;78.11;101100.88;4976154;28;45323;-55
2022/12/26 00:37:33;;;;;;;;;4.33;2.67;;;;;13.43;78.03;101089.19;4976318;28;45334;-48
2022/12/26 00:39:59;;;;;;;;;7.67;5.67;;;;;13.43;77.62;101094.53;4976116;28;45427;-47
2022/12/26 00:42:24;;;;;;;;;6.33;5.00;;;;;13.41;77.85;101075.16;4975776;28;49944;-61
2022/12/26 00:44:49;;;;;;;;;9.00;5.33;;;;;13.42;77.84;101074.13;4976168;28;45418;-59
2022/12/26 00:47:15;;;;;;;;;6.00;4.00;;;;;13.40;77.87;101084.13;4975918;28;45446;-59
2022/12/26 00:49:40;;;;;;;;;8.33;4.67;;;;;13.36;77.72;101088.97;4975987;28;45438;-55
2022/12/26 00:52:05;;;;;;;;;11.00;6.67;;;;;13.34;77.85;101100.81;4975543;28;48866;-49
2022/12/26 00:54:31;;;;;;;;;8.67;4.67;;;;;13.35;78.08;101103.31;4975684;28;45370;-59
2022/12/26 00:56:56;;;;;;;;;8.67;5.33;;;;;13.31;77.97;101085.91;4975843;28;45314;-51
2022/12/26 00:59:21;;;;;;;;;6.00;3.33;;;;;13.36;77.81;101086.31;4975997;28;45277;-47
2022/12/26 01:01:47;;;;;;;;;8.00;3.67;;;;;13.34;77.69;101082.94;4975314;28;46137;-48
2022/12/26 01:04:12;;;;;;;;;5.67;2.33;;;;;13.35;77.84;101089.13;4975707;28;45331;-57
2022/12/26 01:06:37;;;;;;;;;6.00;3.33;;;;;13.33;78.06;101094.63;4975527;28;45347;-48
2022/12/26 01:09:03;;;;;;;;;3.00;3.00;;;;;13.30;77.94;101094.94;4975801;28;45408;-54
2022/12/26 01:11:40;;;;;;;;;4.67;3.33;;;;;13.34;77.97;101092.78;4975556;28;45344;-58
2022/12/26 01:14:14;;;;;;;;;4.00;2.00;;;;;13.31;77.71;101098.44;4975508;28;45451;-52
2022/12/26 01:16:41;;;;;;;;;5.00;3.33;;;;;13.32;77.71;101116.16;4975517;28;45462;-56
2022/12/26 01:19:07;;;;;;;;;2.67;2.33;;;;;13.29;77.86;101119.16;4975618;28;45288;-49
2022/12/26 01:21:32;;;;;;;;;7.00;3.00;;;;;13.31;77.97;101126.00;4975203;28;47226;-52
2022/12/26 01:23:58;;;;;;;;;5.00;4.00;;;;;13.30;78.01;101121.66;4975371;28;45260;-52
2022/12/26 01:26:24;;;;;;;;;4.33;3.00;;;;;13.04;77.64;101081.50;4975681;28;45385;-54
2022/12/26 01:28:51;;;;;;;;;4.67;3.00;;;;;13.31;77.65;101119.81;4975894;28;45405;-51
2022/12/26 01:31:17;;;;;;;;;9.00;4.00;;;;;13.30;78.00;101127.00;4975064;28;47162;-63
2022/12/26 01:33:43;;;;;;;;;3.00;1.00;;;;;13.28;77.57;101125.50;4975568;28;45536;-61
2022/12/26 01:36:08;;;;;;;;;7.00;3.00;;;;;13.20;77.73;101107.53;4975478;28;45394;-51
2022/12/26 01:38:34;;;;;;;;;3.00;3.00;;;;;13.15;77.82;101105.31;4975497;28;45361;-61
2022/12/26 01:43:57;;;;;;;;;3.00;2.00;;;;;13.20;77.78;101143.09;4975351;28;45338;-55
2022/12/26 01:46:39;;;;;;;;;4.00;2.33;;;;;13.19;78.00;101144.09;4975369;28;45340;-56
2022/12/26 01:49:18;;;;;;;;;3.33;2.00;;;;;13.06;78.00;101135.63;4975228;28;45455;-55
2022/12/26 01:51:50;;;;;;;;;1.00;1.00;;;;;13.17;77.98;101171.94;4975017;28;46064;-58
2022/12/26 01:54:16;;;;;;;;;3.33;1.33;;;;;13.16;78.04;101186.28;4975187;28;45431;-62
2022/12/26 01:56:44;;;;;;;;;2.00;2.00;;;;;13.14;78.13;101182.91;4975258;28;45285;-57
2022/12/26 01:59:14;;;;;;;;;1.00;1.00;;;;;13.15;78.01;101185.47;4975492;28;45274;-62
2022/12/26 02:01:42;;;;;;;;;4.00;2.67;;;;;13.19;78.09;101188.66;4974946;28;45389;-62
2022/12/26 02:06:56;;;;;;;;;3.00;2.00;;;;;13.11;78.09;101173.41;4974726;28;45337;-49
2022/12/26 02:09:22;;;;;;;;;3.00;2.00;;;;;13.20;78.26;101175.16;4975237;28;45379;-57
2022/12/26 02:11:55;;;;;;;;;3.67;2.00;;;;;13.21;77.76;101162.63;4974999;28;46644;-62
2022/12/26 02:14:21;;;;;;;;;4.00;2.67;;;;;13.21;77.78;101181.31;4973827;28;45361;-53
2022/12/26 02:16:47;;;;;;;;;3.00;3.00;;;;;13.20;77.63;101175.16;4975046;28;45207;-60
2022/12/26 02:19:36;;;;;;;;;2.00;2.00;;;;;13.19;77.87;101173.47;4975155;28;45534;-62
2022/12/26 02:22:39;;;;;;;;;1.67;1.00;;;;;13.20;77.93;101152.94;4974693;28;46489;-60
2022/12/26 02:25:42;;;;;;;;;3.00;1.67;;;;;13.20;77.76;101155.59;4974808;28;45320;-62
2022/12/26 02:28:41;;;;;;;;;1.00;1.00;;;;;13.19;77.40;101151.28;4974792;28;45316;-60
2022/12/26 02:31:21;;;;;;;;;2.00;2.00;;;;;13.16;77.50;101152.41;4975094;28;45354;-54
2022/12/26 02:33:55;;;;;;;;;1.00;1.00;;;;;13.17;77.80;101169.25;4974425;28;45436;-62
2022/12/26 02:36:55;;;;;;;;;3.00;3.00;;;;;13.19;77.61;101183.31;4974703;28;45276;-63
2022/12/26 02:39:46;;;;;;;;;3.00;1.33;;;;;13.18;78.00;101177.13;4974932;28;45253;-54
2022/12/26 02:42:50;;;;;;;;;2.67;2.00;;;;;13.20;77.80;101176.97;4974663;28;45391;-56
2022/12/26 02:48:26;;;;;;;;;1.33;1.33;;;;;13.15;77.56;101141.88;4974151;28;45470;-62
2022/12/26 03:14:40;;;;;;;;;4.00;1.00;;;;;13.09;78.28;101158.50;4974261;28;45470;-58
2022/12/26 03:17:18;;;;;;;;;2.67;1.00;;;;;13.08;78.38;101155.00;4972996;28;45299;-62
2022/12/26 03:19:58;;;;;;;;;1.00;1.00;;;;;13.10;77.84;101144.16;4973738;28;46351;-59
2022/12/26 03:22:38;;;;;;;;;3.00;2.00;;;;;13.09;78.03;101137.97;4973787;28;45462;-62
2022/12/26 03:27:53;;;;;;;;;2.00;1.00;;;;;13.09;78.05;101147.81;4974219;28;45363;-60
2022/12/26 03:33:02;;;;;;;;;2.33;1.00;;;;;13.11;78.25;101156.53;4974021;28;45273;-62
2022/12/26 03:35:31;;;;;;;;;1.00;1.00;;;;;13.11;77.94;101154.69;4974040;28;45284;-62
2022/12/26 03:38:09;;;;;;;;;0.00;0.00;;;;;13.10;77.88;101153.00;4974048;28;45303;-61
2022/12/26 04:44:13;;;;;;;;;1.00;0.67;;;;;12.89;78.68;101200.53;4976140;28;45280;-48
2022/12/26 04:46:41;;;;;;;;;3.33;1.00;;;;;12.89;78.86;101206.72;4976090;28;45521;-46
2022/12/26 04:51:59;;;;;;;;;2.33;1.67;;;;;12.93;78.53;101218.75;4975604;28;45427;-57
2022/12/26 04:54:25;;;;;;;;;1.00;1.00;;;;;12.92;79.00;101232.28;4975959;28;45386;-49
2022/12/26 04:56:51;;;;;;;;;1.00;1.00;;;;;12.86;78.84;101223.03;4976387;28;45599;-49
2022/12/26 04:59:17;;;;;;;;;1.00;1.00;;;;;12.92;78.75;101242.97;4975646;28;47176;-59
2022/12/26 05:10:10;;;;;;;;;3.00;1.00;;;;;12.80;78.50;101234.31;4975738;28;45904;-59
2022/12/26 05:12:35;;;;;;;;;1.67;1.67;;;;;12.89;78.87;101256.59;4975521;28;45330;-53
2022/12/26 05:15:00;;;;;;;;;3.00;1.00;;;;;12.89;78.82;101253.94;4975533;28;45366;-59
2022/12/26 05:28:41;;;;;;;;;2.00;1.00;;;;;12.82;78.77;101253.69;4975631;28;45299;-62
2022/12/26 05:31:09;;;;;;;;;2.00;1.00;;;;;12.86;79.05;101254.25;4975382;28;45385;-49
2022/12/26 05:36:20;;;;;;;;;1.67;0.67;;;;;12.81;78.24;101254.69;4975787;28;45475;-59
2022/12/26 05:38:45;;;;;;;;;2.00;1.67;;;;;12.82;78.60;101258.19;4975754;28;45621;-62
2022/12/26 05:41:11;;;;;;;;;2.00;0.33;;;;;12.82;78.27;101252.88;4974345;28;46138;-53
2022/12/26 05:43:36;;;;;;;;;1.33;1.00;;;;;12.81;78.13;101269.84;4976460;28;51661;-46
2022/12/26 05:46:02;;;;;;;;;1.00;1.00;;;;;12.80;78.27;101278.84;4975538;28;45474;-54
2022/12/26 05:48:27;;;;;;;;;2.00;2.00;;;;;12.79;77.69;101288.69;4975679;28;45469;-51
2022/12/26 05:51:00;;;;;;;;;2.00;1.00;;;;;12.77;77.68;101285.34;4975731;28;46152;-46
2022/12/26 05:53:26;;;;;;;;;1.00;0.67;;;;;12.72;77.75;101292.94;4974399;28;45441;-62
2022/12/26 05:55:51;;;;;;;;;1.33;1.00;;;;;12.78;77.97;101300.38;4975398;28;45366;-51
2022/12/26 05:58:16;;;;;;;;;3.00;2.00;;;;;12.78;77.85;101296.88;4975470;28;45378;-54
2022/12/26 06:00:42;;;;;;;;;3.67;0.67;;;;;12.79;77.74;101302.03;4975441;28;45327;-46
2022/12/26 06:03:07;;;;;;;;;1.00;1.00;;;;;12.80;77.31;101301.03;4974689;28;51843;-49
2022/12/26 06:05:32;;;;;;;;;2.00;1.00;;;;;12.79;77.04;101295.88;4976059;28;45367;-48
2022/12/26 06:07:58;;;;;;;;;1.00;1.00;;;;;12.77;77.14;101296.03;4975968;28;45314;-49
2022/12/26 06:10:25;;;;;;;;;0.00;0.00;;;;;12.78;76.82;101302.19;4976785;28;45460;-55
2022/12/26 06:12:51;;;;;;;;;0.00;0.00;;;;;12.78;76.97;101302.19;4975296;28;45322;-52
2022/12/26 06:15:17;;;;;;;;;1.67;1.67;;;;;12.78;76.73;101305.72;4973974;28;45383;-48
2022/12/26 06:17:43;;;;;;;;;0.33;0.33;;;;;12.77;75.95;101296.03;4975225;28;45384;-49
2022/12/26 06:20:08;;;;;;;;;2.00;1.00;;;;;12.77;76.35;101305.84;4974811;28;46006;-46
2022/12/26 06:22:34;;;;;;;;;0.67;0.67;;;;;12.76;76.41;101290.81;4974629;28;45460;-49
2022/12/26 06:24:59;;;;;;;;;1.00;1.00;;;;;12.73;75.85;101294.63;4975056;28;45650;-49
2022/12/26 06:27:24;;;;;;;;;0.67;0.00;;;;;12.69;76.14;101299.44;4975334;28;45446;-51
2022/12/26 06:29:50;;;;;;;;;0.00;0.00;;;;;12.66;76.11;101290.88;4974944;28;46260;-46
2022/12/26 06:32:15;;;;;;;;;2.00;1.00;;;;;12.63;75.47;101286.66;4974890;28;45402;-48
2022/12/26 06:34:40;;;;;;;;;0.00;0.00;;;;;12.61;75.99;101285.13;4975017;28;45239;-48
2022/12/26 06:37:06;;;;;;;;;1.00;1.00;;;;;12.58;75.97;101286.25;4975208;28;45635;-45
2022/12/26 06:39:31;;;;;;;;;1.00;1.00;;;;;12.56;75.85;101301.59;4974758;28;46938;-49
2022/12/26 06:41:57;;;;;;;;;0.33;0.33;;;;;12.52;76.14;101310.03;4974570;28;45400;-49
2022/12/26 06:44:22;;;;;;;;;0.00;0.00;;;;;12.49;75.90;101322.66;4975231;28;45332;-49
2022/12/26 06:46:47;;;;;;;;;2.00;0.67;;;;;12.51;75.91;101319.84;4974865;28;45318;-50
2022/12/26 06:49:13;;;;;;;;;0.67;0.67;;;;;12.47;76.16;101323.78;4974393;28;46870;-48
2022/12/26 06:51:38;;;;;;;;;2.33;1.00;;;;;12.48;75.69;101330.81;4974453;28;45387;-47
2022/12/26 06:54:03;;;;;;;;;3.33;3.00;;;;;12.40;75.95;101315.53;4974514;28;45430;-48
2022/12/26 06:56:31;;;;;;;;;0.00;0.00;;;;;12.48;75.86;101336.16;4989845;28;45351;-54
2022/12/26 06:58:59;;;;;;;;;1.00;1.00;;;;;12.29;76.09;101310.34;4974554;28;46389;-55
2022/12/26 07:01:26;;;;;;;;;2.00;1.00;;;;;12.44;76.14;101334.78;4974282;28;45273;-55
2022/12/26 07:03:53;;;;;;;;;3.00;2.00;;;;;12.42;76.07;101332.22;4974534;28;45435;-49
2022/12/26 07:06:29;;;;;;;;;1.33;1.33;;;;;12.43;76.29;101333.94;4974491;28;45450;-49
2022/12/26 07:09:03;;;;;;;;;0.67;0.67;;;;;12.37;76.32;101345.16;4973847;28;47335;-54
2022/12/26 07:11:31;;;;;;;;;1.67;0.67;;;;;12.34;75.96;101349.94;4973986;28;45319;-46
2022/12/26 07:13:58;;;;;;;;;1.00;1.00;;;;;12.26;76.28;101344.47;4974287;28;45252;-47
2022/12/26 07:16:24;;;;;;;;;2.67;1.00;;;;;12.34;76.35;101356.13;4974549;28;45679;-54
2022/12/26 07:18:54;;;;;;;;;3.00;1.00;;;;;12.34;76.03;101364.13;4973869;28;45370;-54
2022/12/26 07:21:20;;;;;;;;;0.00;0.00;;;;;12.35;76.30;101365.00;4973981;28;46151;-62
2022/12/26 07:23:46;;;;;;;;;2.00;1.33;;;;;12.35;76.01;101365.00;4974112;28;45325;-48
2022/12/26 07:26:11;;;;;;;;;7.67;1.33;;;;;12.35;75.97;101362.31;4974119;28;45242;-49
2022/12/26 07:28:36;;;;;;;;;3.00;1.00;;;;;12.30;76.49;101362.72;4974045;28;45537;-49
2022/12/26 07:31:02;;;;;;;;;2.00;1.00;;;;;12.31;76.39;101385.78;4973822;28;45347;-54
2022/12/26 07:33:28;;;;;;;;;1.33;1.33;;;;;12.33;76.08;101389.13;4973859;28;45181;-51
2022/12/26 07:35:58;;;;;;;;;3.67;2.00;;;;;12.36;76.61;101374.66;4974232;28;45297;-48
2022/12/26 07:38:24;;;;;;;;;1.00;1.00;;;;;12.34;76.75;101373.94;4973874;28;47104;-47
2022/12/26 07:40:49;;;;;;;;;1.00;1.00;;;;;12.34;76.40;101384.63;4974225;28;45311;-55
2022/12/26 07:43:14;;;;;;;;;3.00;2.67;;;;;12.35;76.50;101373.00;4974849;28;45657;-54
2022/12/26 07:45:40;;;;;;;;;4.00;1.67;;;;;12.31;76.52;101361.75;4974554;28;45581;-52
2022/12/26 07:48:05;;;;;;;;;4.00;3.00;;;;;12.33;76.25;101375.78;4973697;28;46161;-48
2022/12/26 07:50:31;;;;;;;;;3.00;2.00;;;;;12.32;76.72;101389.28;4973461;28;45449;-60
2022/12/26 07:52:58;;;;;;;;;1.00;1.00;;;;;12.28;76.60;101382.53;4973540;28;45323;-46
2022/12/26 07:55:23;;;;;;;;;1.00;1.00;;;;;12.31;76.40;101401.78;4974108;28;45438;-47
2022/12/26 07:57:50;;;;;;;;;2.00;2.00;;;;;12.30;76.26;101397.41;4972067;28;47429;-57
2022/12/26 08:00:18;;;;;;;;;3.00;3.00;;;;;12.30;76.78;101402.72;4974529;28;45340;-45
2022/12/26 08:02:44;;;;;;;;;5.33;2.00;;;;;12.34;77.17;101403.28;4975072;28;45306;-48
2022/12/26 08:05:09;;;;;;;;;2.33;0.67;;;;;12.37;77.08;101413.69;4976422;28;45351;-46
2022/12/26 08:07:34;;;;;;;;;1.67;1.67;;;;;12.38;76.72;101410.88;4976383;28;45367;-48
2022/12/26 08:10:00;;;;;;;;;3.33;2.00;;;;;12.39;76.37;101399.25;4976082;28;45501;-45
2022/12/26 08:12:25;;;;;;;;;1.00;1.00;;;;;12.45;76.40;101411.16;4976538;28;45359;-55
2022/12/26 08:14:51;;;;;;;;;1.33;1.33;;;;;12.37;76.36;101395.03;4976575;28;45403;-51
2022/12/26 08:17:17;;;;;;;;;3.00;1.67;;;;;12.46;76.07;101408.34;4976074;28;46143;-49
2022/12/26 08:19:42;;;;;;;;;1.00;1.00;;;;;12.50;76.07;101419.56;4976193;28;45186;-49
2022/12/26 08:22:07;;;;;;;;;1.67;1.67;;;;;12.51;76.00;101420.41;4976379;28;45285;-48
2022/12/26 08:24:33;;;;;;;;;2.00;2.00;;;;;12.48;75.92;101417.06;4976217;28;45332;-61
2022/12/26 08:26:58;;;;;;;;;2.00;2.00;;;;;12.56;75.88;101426.19;4975850;28;46053;-47
2022/12/26 08:29:23;;;;;;;;;0.67;0.00;;;;;12.63;76.35;101425.44;4976234;28;45162;-49
2022/12/26 08:31:49;;;;;;;;;5.00;3.00;;;;;12.61;75.91;101414.09;4976445;28;45409;-59
2022/12/26 08:34:14;;;;;;;;;2.00;1.33;;;;;12.72;75.30;101434.41;4976199;28;45231;-50
2022/12/26 08:36:40;;;;;;;;;3.33;3.00;;;;;12.74;75.65;101454.66;4975863;28;45432;-50
2022/12/26 08:39:05;;;;;;;;;2.00;1.33;;;;;12.80;75.23;101439.88;4976090;28;45380;-48
2022/12/26 08:41:31;;;;;;;;;1.00;1.00;;;;;12.85;74.71;101442.13;4976020;28;45299;-52
2022/12/26 08:43:56;;;;;;;;;3.00;1.00;;;;;12.88;74.56;101453.34;4976291;28;45504;-49
2022/12/26 08:46:22;;;;;;;;;2.00;2.00;;;;;12.89;74.14;101462.22;4976099;28;46183;-49
2022/12/26 08:48:48;;;;;;;;;1.33;1.33;;;;;12.89;74.70;101460.41;4975866;28;45468;-52
2022/12/26 08:51:20;;;;;;;;;1.00;1.00;;;;;12.92;74.49;101461.94;4976063;28;45350;-50
2022/12/26 08:53:48;;;;;;;;;3.00;3.00;;;;;12.89;74.23;101464.88;4974802;28;45532;-51
2022/12/26 08:56:15;;;;;;;;;2.00;2.00;;;;;12.94;74.27;101468.81;4975822;28;46191;-60
2022/12/26 08:58:41;;;;;;;;;3.00;3.00;;;;;12.95;73.84;101472.34;4977319;28;45510;-62
2022/12/26 09:01:13;;;;;;;;;4.00;2.00;;;;;12.87;73.92;101465.03;4975663;28;45363;-54
2022/12/26 09:03:39;;;;;;;;;2.00;1.67;;;;;12.95;73.61;101475.84;4976018;28;45291;-60
2022/12/26 09:06:05;;;;;;;;;6.33;1.00;;;;;12.87;74.39;101467.69;4977070;28;45357;-49
2022/12/26 09:08:33;;;;;;;;;3.00;3.00;;;;;12.96;73.65;101498.03;4975315;28;45428;-55
2022/12/26 09:11:08;;;;;;;;;4.00;1.00;;;;;12.95;74.05;101496.38;4975780;28;45447;-63
2022/12/26 09:13:34;;;;;;;;;2.33;1.00;;;;;12.95;74.05;101494.53;4975549;28;45194;-48
2022/12/26 09:16:04;;;;;;;;;1.00;1.00;;;;;12.95;74.10;101497.19;4974391;28;46241;-51
2022/12/26 09:18:30;;;;;;;;;2.67;2.00;;;;;12.93;73.88;101496.50;4976068;28;45283;-53
2022/12/26 09:20:59;;;;;;;;;2.67;1.33;;;;;12.94;73.65;101503.53;4975935;28;45462;-58
2022/12/26 09:23:24;;;;;;;;;4.00;3.33;;;;;12.93;73.88;101517.84;4975900;28;45505;-49
2022/12/26 09:25:49;;;;;;;;;2.00;2.00;;;;;12.92;74.20;101512.66;4975483;28;45395;-50
2022/12/26 09:28:15;;;;;;;;;3.67;2.00;;;;;12.89;73.75;101496.91;4975359;28;48916;-49
2022/12/26 09:30:40;;;;;;;;;3.00;1.33;;;;;12.93;73.82;101511.66;4975695;28;45354;-48
2022/12/26 09:33:06;;;;;;;;;1.00;1.00;;;;;12.91;73.63;101517.16;4975868;28;45439;-55
2022/12/26 09:35:32;;;;;;;;;2.00;2.00;;;;;12.93;73.58;101512.50;4975349;28;45931;-54
2022/12/26 09:37:57;;;;;;;;;8.00;4.67;;;;;12.89;74.01;101513.81;4975437;28;45506;-55
2022/12/26 09:40:31;;;;;;;;;7.67;4.00;;;;;12.95;73.76;101515.06;4975544;28;45517;-54
2022/12/26 09:43:15;;;;;;;;;4.33;2.00;;;;;12.95;74.11;101518.56;4975620;28;45195;-47
2022/12/26 09:45:55;;;;;;;;;2.33;2.00;;;;;12.98;73.79;101515.63;4973989;28;48536;-52
2022/12/26 09:48:33;;;;;;;;;4.00;2.67;;;;;13.03;73.52;101522.34;4975270;28;45362;-60
2022/12/26 09:50:58;;;;;;;;;3.33;1.00;;;;;13.02;73.78;101521.53;4975496;28;45323;-53
2022/12/26 09:53:30;;;;;;;;;2.67;2.00;;;;;12.96;73.50;101519.41;4975576;28;45465;-52
2022/12/26 09:55:59;;;;;;;;;3.33;2.00;;;;;13.01;74.03;101538.50;4973939;28;47202;-45
2022/12/26 09:58:32;;;;;;;;;3.00;1.33;;;;;13.05;73.88;101537.25;4975352;28;45368;-58
2022/12/26 10:01:00;;;;;;;;;2.33;1.67;;;;;13.06;73.61;101532.72;4975318;28;45231;-59
2022/12/26 10:03:26;;;;;;;;;2.50;2.50;;;;;12.98;73.88;101525.47;4975241;28;45406;-53
2022/12/26 10:06:10;;;;;;;;;3.00;2.33;;;;;13.07;73.66;101532.59;4975101;28;46332;-60
2022/12/26 10:08:56;;;;;;;;;3.00;1.67;;;;;13.05;73.85;101523.03;4974811;28;45491;-59
2022/12/26 10:11:52;;;;;;;;;4.33;2.00;;;;;13.12;73.84;101542.88;4975141;28;45292;-51
2022/12/26 10:14:43;;;;;;;;;3.00;1.00;;;;;13.10;73.97;101542.97;4975341;28;45322;-52
2022/12/26 10:17:21;;;;;;;;;2.00;2.00;;;;;13.13;73.70;101541.88;4967745;28;46249;-55
2022/12/26 10:20:20;;;;;;;;;3.33;3.00;;;;;13.13;73.76;101545.38;4975001;28;45232;-48
2022/12/26 10:23:20;;;;;;;;;0.67;0.67;;;;;13.16;73.23;101544.25;4975161;28;45300;-63
2022/12/26 10:25:59;;;;;;;;;3.67;1.00;;;;;13.15;73.83;101538.06;4974751;28;45430;-62
2022/12/26 10:28:35;;;;;;;;;1.00;1.00;;;;;13.17;73.80;101537.91;4975104;28;46213;-58
2022/12/26 10:31:07;;;;;;;;;0.00;0.00;;;;;13.19;72.74;101530.63;4974861;28;45423;-62
2022/12/26 10:33:44;;;;;;;;;1.00;1.00;;;;;13.20;72.99;101538.47;4975272;28;45355;-52
2022/12/26 10:36:25;;;;;;;;;1.00;1.00;;;;;13.22;72.83;101538.31;4975534;28;45323;-59
2022/12/26 10:38:52;;;;;;;;;0.33;0.33;;;;;13.22;73.11;101525.84;4975118;28;45395;-59
2022/12/26 10:41:25;;;;;;;;;2.00;2.00;;;;;13.27;72.77;101524.56;4974679;28;45418;-59
2022/12/26 10:43:51;;;;;;;;;1.00;1.00;;;;;13.29;72.43;101528.78;4975117;28;45288;-49
2022/12/26 10:46:30;;;;;;;;;0.67;0.00;;;;;13.30;72.49;101538.47;4975425;28;45302;-61
2022/12/26 10:48:56;;;;;;;;;1.67;1.67;;;;;13.33;72.62;101537.34;4974534;28;45307;-60
2022/12/26 10:51:21;;;;;;;;;2.33;1.00;;;;;13.32;72.59;101530.34;4974810;28;45453;-50
2022/12/26 10:53:49;;;;;;;;;3.00;0.67;;;;;13.34;72.13;101537.19;4974563;28;45309;-61
2022/12/26 10:56:16;;;;;;;;;1.33;1.00;;;;;13.35;72.23;101541.56;4974877;28;45481;-61
2022/12/26 10:58:42;;;;;;;;;0.67;0.67;;;;;13.37;72.43;101539.59;4974732;28;46090;-58
2022/12/26 11:01:48;;;;;;;;;0.67;0.67;;;;;13.37;72.23;101546.78;4974700;28;45344;-48
2022/12/26 11:04:17;;;;;;;;;0.00;0.00;;;;;13.36;72.74;101540.59;4974430;28;45500;-58
2022/12/26 11:06:43;;;;;;;;;6.67;2.33;;;;;13.37;72.90;101538.75;4974837;28;45359;-49
2022/12/26 11:09:32;;;;;;;;;0.33;0.33;;;;;13.38;72.14;101543.94;4974168;28;46305;-47
2022/12/26 11:11:58;;;;;;;;;1.00;1.00;;;;;13.36;72.20;101548.59;4974522;28;45377;-49
2022/12/26 11:14:39;;;;;;;;;1.00;1.00;;;;;13.28;72.19;101529.78;4974820;28;45461;-56
2022/12/26 11:17:11;;;;;;;;;0.67;0.33;;;;;13.37;71.80;101557.47;4975762;28;45214;-52
2022/12/26 11:19:44;;;;;;;;;0.00;0.00;;;;;13.38;71.82;101541.28;4975039;27;45483;-57
2022/12/26 11:22:27;;;;;;;;;1.00;1.00;;;;;13.34;72.16;101545.22;4974821;28;45390;-57
2022/12/26 11:25:10;;;;;;;;;4.33;1.00;;;;;13.37;72.24;101538.75;4974293;28;45384;-60
2022/12/26 11:27:38;;;;;;;;;2.33;0.67;;;;;13.35;72.01;101543.38;4974192;28;45235;-55
2022/12/26 11:30:12;;;;;;;;;2.00;1.33;;;;;13.36;72.45;101542.41;4974031;28;45411;-52
2022/12/26 11:32:39;;;;;;;;;0.00;0.00;;;;;13.30;71.98;101521.59;4974071;28;45480;-59
2022/12/26 11:35:05;;;;;;;;;2.00;1.00;;;;;13.36;72.04;101529.06;4974135;28;45425;-61
2022/12/26 11:37:40;;;;;;;;;1.00;1.00;;;;;13.36;72.19;101534.41;4974546;28;45440;-62
2022/12/26 11:40:14;;;;;;;;;1.00;1.00;;;;;13.38;72.21;101538.59;4976650;28;46237;-62
2022/12/26 11:42:40;;;;;;;;;1.00;1.00;;;;;13.43;71.74;101549.69;4976574;28;45480;-48
2022/12/26 11:45:10;;;;;;;;;0.33;0.33;;;;;13.42;71.57;101540.00;4977144;28;45330;-63
2022/12/26 11:47:36;;;;;;;;;1.67;1.00;;;;;13.47;71.36;101548.41;4976939;28;45363;-50
2022/12/26 11:50:10;;;;;;;;;2.00;2.00;;;;;13.52;71.31;101557.81;4976409;28;46427;-63
2022/12/26 11:52:41;;;;;;;;;1.00;1.00;;;;;13.55;71.77;101554.88;4976794;28;45329;-62
2022/12/26 11:55:28;;;;;;;;;0.00;0.00;;;;;13.55;71.19;101558.38;4976801;28;45360;-59
2022/12/26 11:58:00;;;;;;;;;1.00;1.00;;;;;13.56;71.00;101560.06;4977152;28;45369;-49
2022/12/26 12:00:27;;;;;;;;;3.00;2.00;;;;;13.61;71.05;101549.78;4976389;28;47131;-49
2022/12/26 12:02:52;;;;;;;;;1.00;1.00;;;;;13.62;70.92;101559.50;4976614;28;45363;-61
2022/12/26 12:05:40;;;;;;;;;4.33;2.00;;;;;13.61;70.56;101547.13;4976727;28;45504;-55
2022/12/26 12:08:34;;;;;;;;;2.00;1.00;;;;;13.60;70.91;101547.25;4976656;28;45588;-48
2022/12/26 12:11:24;;;;;;;;;2.00;1.00;;;;;13.60;69.92;101540.06;4976515;28;46318;-50
2022/12/26 12:14:00;;;;;;;;;2.00;0.67;;;;;13.58;69.85;101543.88;4976710;28;45480;-50
2022/12/26 12:16:53;;;;;;;;;1.00;1.00;;;;;13.57;70.09;101558.22;4976719;28;45334;-45
2022/12/26 12:19:23;;;;;;;;;2.00;1.67;;;;;13.57;69.95;101558.22;4976675;28;45342;-57
2022/12/26 12:22:07;;;;;;;;;1.00;1.00;;;;;13.48;71.54;101576.84;4976463;28;46192;-62
2022/12/26 12:24:57;;;;;;;;;0.33;0.33;;;;;13.32;71.52;101579.28;4976274;28;45285;-51
2022/12/26 12:28:06;;;;;;;;;3.33;0.00;;;;;13.15;71.59;101575.47;4976525;28;45412;-61
2022/12/26 12:30:43;;;;;;;;;2.00;0.00;;;;;12.94;72.07;101572.97;4954978;28;45384;-49
2022/12/26 12:33:42;;;;;;;;;1.00;1.00;;;;;12.79;72.39;101592.22;4954635;28;45391;-58
2022/12/26 12:36:16;;;;;;;;;0.67;0.00;;;;;12.62;72.68;101591.94;4954578;28;45411;-57
2022/12/26 12:38:52;;;;;;;;;1.67;1.00;;;;;12.56;73.50;101605.84;4954715;28;45391;-50
2022/12/26 12:41:50;;;;;;;;;0.00;0.00;;;;;12.46;73.57;101605.81;4954539;28;45636;-57
2022/12/26 12:44:25;;;;;;;;;5.67;1.00;;;;;12.37;74.58;101611.13;4954182;28;46223;-56
2022/12/26 12:47:02;;;;;;;;;3.00;1.67;;;;;12.31;75.17;101617.03;4954506;28;45443;-60
2022/12/26 12:49:39;;;;;;;;;3.67;3.00;;;;;12.24;75.33;101622.06;4954251;28;45405;-55
2022/12/26 12:52:33;;;;;;;;;2.00;1.00;;;;;12.18;74.65;101633.28;4954751;28;45404;-55
2022/12/26 12:55:13;;;;;;;;;1.33;1.33;;;;;12.10;74.37;101625.94;4954560;28;45405;-49
2022/12/26 12:57:49;;;;;;;;;2.33;1.00;;;;;11.98;74.25;101621.69;4955738;28;45534;-49
2022/12/26 13:00:23;;;;;;;;;1.33;0.67;;;;;11.91;74.00;101621.38;4954509;28;45473;-48
2022/12/26 13:03:11;;;;;;;;;3.00;1.00;;;;;11.81;73.47;101623.13;4954503;28;45403;-48
2022/12/26 13:06:01;;;;;;;;;2.00;2.00;;;;;11.71;73.27;101635.53;4955002;28;45497;-56
2022/12/26 13:08:36;;;;;;;;;0.00;0.00;;;;;11.68;73.46;101633.16;4975421;28;45319;-58
2022/12/26 13:11:27;;;;;;;;;0.33;0.33;;;;;11.60;72.23;101639.16;4976303;28;45276;-61
2022/12/26 13:14:01;;;;;;;;;0.00;0.00;;;;;11.60;72.25;101640.97;4954552;28;45511;-61
2022/12/26 13:16:32;;;;;;;;;2.00;0.00;;;;;11.55;72.39;101644.03;4954189;28;46148;-46
2022/12/26 13:19:03;;;;;;;;;2.33;1.00;;;;;11.55;71.47;101645.88;4954308;28;45479;-61
2022/12/26 13:21:34;;;;;;;;;2.00;1.00;;;;;11.56;71.22;101653.72;4954055;28;45247;-61
2022/12/26 13:24:23;;;;;;;;;0.00;0.00;;;;;11.57;69.73;101655.41;4954551;28;45438;-62
2022/12/26 13:27:26;;;;;;;;;0.67;0.67;;;;;11.63;70.01;101656.69;4953903;28;46102;-57
2022/12/26 13:29:52;;;;;;;;;1.00;1.00;;;;;11.70;68.73;101660.53;4953919;28;45438;-59
2022/12/26 13:32:24;;;;;;;;;0.00;0.00;;;;;11.73;69.31;101652.28;4953978;28;45512;-49
2022/12/26 13:34:52;;;;;;;;;3.00;1.67;;;;;11.68;68.53;101639.34;4954051;28;45328;-61
2022/12/26 13:37:36;;;;;;;;;0.67;0.67;;;;;11.77;68.40;101653.69;4953753;28;45450;-61
2022/12/26 13:40:14;;;;;;;;;3.67;1.00;;;;;11.80;68.29;101650.78;4953448;28;45407;-62
2022/12/26 13:45:34;;;;;;;;;0.67;0.00;;;;;11.86;67.24;101666.25;4953942;28;45510;-62
2022/12/26 13:47:59;;;;;;;;;1.00;1.00;;;;;11.90;66.19;101658.84;4953291;28;46177;-56
2022/12/26 13:50:46;;;;;;;;;3.00;0.00;;;;;11.96;67.67;101644.97;4960673;28;45339;-63
2022/12/26 13:53:24;;;;;;;;;0.00;0.00;;;;;11.98;66.93;101649.19;4975298;28;45215;-61